Time;durP1;ratioP1;P1;durP2;ratioP2;P2;SDS_P1;SDS_P2;PMS_P1;PMS_P2;Temp;Humidity;BMP_temperature;BMP_pressure;BME280_temperature;BME280_humidity;BME280_pressure;Samples;Min_cycle;Max_cycle;Signal;HPM_P1;HPM_P2
2021/01/24 00:00:20;;;;;;;5.68;3.30;;;5.20;99.90;;;;;;5068184;28;20086;-55
2021/01/24 00:02:46;;;;;;;7.18;3.78;;;5.20;99.90;;;;;;5069125;28;20028;-54
2021/01/24 00:05:11;;;;;;;9.02;3.65;;;5.20;99.90;;;;;;5064642;28;20036;-55
2021/01/24 00:07:37;;;;;;;6.32;2.60;;;5.20;99.90;;;;;;5067510;28;20028;-55
2021/01/24 00:10:04;;;;;;;3.13;1.48;;;5.20;99.90;;;;;;5069033;28;20040;-56
2021/01/24 00:12:30;;;;;;;3.00;1.80;;;5.20;99.90;;;;;;5067869;28;20082;-56
2021/01/24 00:14:56;;;;;;;5.10;2.00;;;5.10;99.90;;;;;;5068563;28;20032;-57
2021/01/24 00:17:21;;;;;;;6.13;2.00;;;5.10;99.90;;;;;;5066696;28;20035;-56
2021/01/24 00:19:47;;;;;;;4.47;2.00;;;5.10;99.90;;;;;;5068928;28;20052;-56
2021/01/24 00:22:13;;;;;;;4.75;1.60;;;5.10;99.90;;;;;;5067734;28;20053;-53
2021/01/24 00:24:39;;;;;;;4.55;1.92;;;5.10;99.90;;;;;;5068742;28;20035;-53
2021/01/24 00:27:04;;;;;;;4.25;1.52;;;5.10;99.90;;;;;;5062764;28;20484;-53
2021/01/24 00:29:30;;;;;;;4.88;2.20;;;5.00;99.90;;;;;;5066069;28;20110;-55
2021/01/24 00:31:56;;;;;;;6.93;1.58;;;5.00;99.90;;;;;;5053849;28;20150;-52
2021/01/24 00:34:22;;;;;;;3.17;1.98;;;5.00;99.90;;;;;;5057870;28;20036;-53
2021/01/24 00:36:48;;;;;;;2.88;1.70;;;5.10;99.90;;;;;;5065440;28;20127;-57
2021/01/24 00:39:13;;;;;;;3.08;1.65;;;5.00;99.90;;;;;;5067142;28;20101;-51
2021/01/24 00:41:39;;;;;;;4.05;1.45;;;5.00;99.90;;;;;;5067434;28;20040;-54
2021/01/24 00:44:05;;;;;;;2.17;1.20;;;5.00;99.90;;;;;;5068426;28;20123;-50
2021/01/24 00:46:31;;;;;;;3.78;1.20;;;5.00;99.90;;;;;;5067552;28;20044;-55
2021/01/24 00:48:56;;;;;;;3.45;1.20;;;5.00;99.90;;;;;;5062433;28;20032;-56
2021/01/24 00:51:22;;;;;;;3.78;1.70;;;5.00;99.90;;;;;;5066665;28;20037;-53
2021/01/24 00:53:48;;;;;;;3.33;1.58;;;5.00;99.90;;;;;;5066059;28;20052;-55
2021/01/24 00:56:13;;;;;;;4.40;2.22;;;5.00;99.90;;;;;;5068122;28;20028;-55
2021/01/24 00:58:39;;;;;;;2.72;1.25;;;5.00;99.90;;;;;;5067890;28;20096;-55
2021/01/24 01:01:05;;;;;;;2.95;1.67;;;5.00;99.90;;;;;;5067311;28;20455;-54
2021/01/24 01:03:31;;;;;;;5.15;1.98;;;5.00;99.90;;;;;;5067433;28;20074;-54
2021/01/24 01:05:56;;;;;;;5.28;2.20;;;5.00;99.90;;;;;;5068187;28;20541;-54
2021/01/24 01:08:22;;;;;;;4.07;1.58;;;5.00;99.90;;;;;;5067226;28;20570;-55
2021/01/24 01:10:48;;;;;;;3.42;1.40;;;5.00;99.90;;;;;;5066716;28;20372;-57
2021/01/24 01:13:13;;;;;;;2.97;1.02;;;5.00;99.90;;;;;;5068347;28;20058;-56
2021/01/24 01:15:39;;;;;;;1.67;0.90;;;5.00;99.90;;;;;;5067181;28;20054;-55
2021/01/24 01:18:05;;;;;;;2.60;0.95;;;5.00;99.90;;;;;;5068016;28;20035;-56
2021/01/24 01:20:31;;;;;;;1.30;0.90;;;5.00;99.90;;;;;;5066204;28;20448;-55
2021/01/24 01:22:57;;;;;;;2.70;1.20;;;5.00;99.90;;;;;;5068287;28;20072;-53
2021/01/24 01:25:23;;;;;;;2.20;0.70;;;5.00;99.90;;;;;;5066422;28;20040;-54
2021/01/24 01:27:49;;;;;;;2.00;0.68;;;5.00;99.90;;;;;;5068020;28;20040;-52
2021/01/24 01:30:16;;;;;;;2.30;0.40;;;5.10;99.90;;;;;;5063248;28;20021;-55
2021/01/24 01:32:41;;;;;;;1.92;0.68;;;5.00;99.90;;;;;;5049536;28;20142;-51
2021/01/24 01:35:08;;;;;;;2.25;0.57;;;5.10;99.90;;;;;;5054036;28;20048;-53
2021/01/24 01:37:33;;;;;;;3.22;0.80;;;5.00;99.90;;;;;;5050716;28;20044;-56
2021/01/24 01:39:59;;;;;;;3.40;0.70;;;5.00;99.90;;;;;;5069013;28;20040;-53
2021/01/24 01:42:25;;;;;;;1.20;0.57;;;4.90;99.90;;;;;;5069819;28;20078;-54
2021/01/24 01:44:51;;;;;;;1.80;0.90;;;4.90;99.90;;;;;;5068153;28;20032;-55
2021/01/24 01:47:26;;;;;;;2.90;0.77;;;4.90;99.90;;;;;;5053591;28;20448;-55
2021/01/24 01:49:59;;;;;;;3.33;0.95;;;4.90;99.90;;;;;;5053976;28;20487;-55
2021/01/24 01:52:26;;;;;;;3.83;1.00;;;4.90;99.90;;;;;;5058432;28;20095;-56
2021/01/24 01:54:53;;;;;;;2.13;0.60;;;4.90;99.90;;;;;;5050342;28;20088;-54
2021/01/24 01:57:20;;;;;;;2.03;0.55;;;4.80;99.90;;;;;;5069887;28;20040;-56
2021/01/24 01:59:46;;;;;;;2.25;1.23;;;4.80;99.90;;;;;;5070486;28;20060;-55
2021/01/24 02:02:27;;;;;;;2.90;1.10;;;4.80;99.90;;;;;;5071248;28;20040;-57
2021/01/24 02:05:08;;;;;;;3.28;1.17;;;4.80;99.90;;;;;;5070223;28;20064;-56
2021/01/24 02:08:02;;;;;;;2.35;0.88;;;4.90;99.90;;;;;;5070912;28;20047;-55
2021/01/24 02:10:35;;;;;;;3.25;1.50;;;4.80;99.90;;;;;;5061769;28;20046;-56
2021/01/24 02:13:05;;;;;;;3.92;1.08;;;4.80;99.90;;;;;;5071023;28;20090;-55
2021/01/24 02:15:32;;;;;;;1.70;0.60;;;4.80;99.90;;;;;;5070043;28;20051;-54
2021/01/24 02:18:03;;;;;;;3.08;0.90;;;4.80;99.90;;;;;;5070760;28;20406;-53
2021/01/24 02:20:46;;;;;;;1.77;0.63;;;4.80;99.90;;;;;;5070129;28;20368;-54
2021/01/24 02:23:14;;;;;;;1.77;0.60;;;4.80;99.90;;;;;;5070900;28;20036;-53
2021/01/24 02:25:46;;;;;;;1.30;0.60;;;4.80;99.90;;;;;;5067096;28;20740;-56
2021/01/24 02:28:36;;;;;;;1.77;0.70;;;4.80;99.90;;;;;;5071134;28;20423;-55
2021/01/24 02:31:04;;;;;;;1.42;0.47;;;4.80;99.90;;;;;;5059093;28;20040;-54
2021/01/24 02:33:31;;;;;;;4.25;0.70;;;4.80;99.90;;;;;;5069626;28;20063;-55
2021/01/24 02:35:58;;;;;;;1.17;0.60;;;4.80;99.90;;;;;;5069191;28;20040;-56
2021/01/24 02:38:26;;;;;;;1.02;0.40;;;4.80;99.90;;;;;;5070601;28;20039;-57
2021/01/24 02:40:53;;;;;;;1.75;0.50;;;4.80;99.90;;;;;;5069204;28;20042;-57
2021/01/24 02:43:20;;;;;;;1.70;0.40;;;4.80;99.90;;;;;;5070413;28;20030;-55
2021/01/24 02:45:49;;;;;;;1.38;0.40;;;4.80;99.90;;;;;;5068843;28;20143;-56
2021/01/24 02:48:18;;;;;;;1.73;0.50;;;4.80;99.90;;;;;;5067675;28;20112;-55
2021/01/24 02:50:45;;;;;;;3.17;0.90;;;4.80;99.90;;;;;;5069650;28;20039;-57
2021/01/24 02:53:11;;;;;;;1.63;0.60;;;4.70;99.90;;;;;;5055460;28;20079;-56
2021/01/24 02:55:37;;;;;;;4.35;0.60;;;4.80;99.90;;;;;;5069113;28;20320;-56
2021/01/24 02:58:04;;;;;;;1.30;0.40;;;4.80;99.90;;;;;;5056984;28;20033;-56
2021/01/24 03:00:30;;;;;;;2.65;0.60;;;4.80;99.90;;;;;;5069318;28;20044;-57
2021/01/24 03:02:56;;;;;;;1.83;0.70;;;4.70;99.90;;;;;;5070117;28;20036;-55
2021/01/24 03:05:23;;;;;;;2.15;0.70;;;4.80;99.90;;;;;;5069213;28;20094;-55
2021/01/24 03:07:49;;;;;;;3.05;1.17;;;4.70;99.90;;;;;;5069832;28;20082;-56
2021/01/24 03:13:05;;;;;;;12.85;4.53;;;4.80;99.90;;;;;;5076605;22;20060;-56
2021/01/24 03:15:32;;;;;;;20.30;7.28;;;4.80;99.90;;;;;;5044599;28;20042;-53
2021/01/24 03:17:59;;;;;;;9.82;4.97;;;4.70;99.90;;;;;;5030035;28;20495;-54
2021/01/24 03:20:27;;;;;;;7.80;3.60;;;4.60;99.90;;;;;;5029178;28;20038;-54
2021/01/24 03:22:54;;;;;;;6.80;3.38;;;4.60;99.90;;;;;;5026171;28;20037;-55
2021/01/24 03:25:21;;;;;;;5.93;2.90;;;4.60;99.90;;;;;;5027294;28;20118;-55
2021/01/24 03:27:48;;;;;;;5.72;2.53;;;4.60;99.90;;;;;;5029805;28;20033;-54
2021/01/24 03:30:14;;;;;;;3.63;1.48;;;4.60;99.90;;;;;;5028908;28;20500;-56
2021/01/24 03:32:40;;;;;;;2.63;1.13;;;4.70;99.90;;;;;;5027900;28;20418;-53
2021/01/24 03:35:07;;;;;;;2.97;0.68;;;4.70;99.90;;;;;;5027728;28;20041;-54
2021/01/24 03:37:33;;;;;;;3.17;0.65;;;4.70;99.90;;;;;;5028526;28;20044;-54
2021/01/24 03:39:58;;;;;;;1.80;0.70;;;4.70;99.90;;;;;;5028213;28;20365;-54
2021/01/24 03:42:26;;;;;;;1.30;0.47;;;4.70;99.90;;;;;;5028769;28;20060;-54
2021/01/24 03:44:52;;;;;;;1.48;0.55;;;4.70;99.90;;;;;;5029385;28;20026;-52
2021/01/24 03:47:18;;;;;;;1.45;0.40;;;4.70;99.90;;;;;;5026584;28;20152;-55
2021/01/24 03:49:43;;;;;;;1.52;0.60;;;4.80;99.90;;;;;;5010750;28;20048;-53
2021/01/24 03:52:09;;;;;;;1.92;0.60;;;4.70;99.90;;;;;;5028663;28;20031;-54
2021/01/24 03:54:35;;;;;;;3.03;0.70;;;4.70;99.90;;;;;;5029698;28;20033;-55
2021/01/24 03:57:01;;;;;;;1.25;0.50;;;4.70;99.90;;;;;;5028555;28;20033;-56
2021/01/24 03:59:26;;;;;;;1.75;0.57;;;4.60;99.90;;;;;;5027308;28;20037;-56
2021/01/24 04:01:52;;;;;;;1.55;0.50;;;4.60;99.90;;;;;;5028606;28;20052;-54
2021/01/24 04:04:18;;;;;;;1.63;0.50;;;4.50;99.90;;;;;;5028095;28;20037;-54
2021/01/24 04:06:44;;;;;;;1.48;0.50;;;4.50;99.90;;;;;;5029013;28;20156;-54
2021/01/24 04:09:09;;;;;;;0.90;0.43;;;4.40;99.90;;;;;;5028935;28;20033;-58
2021/01/24 04:11:35;;;;;;;1.10;0.50;;;4.30;99.90;;;;;;5028103;28;20025;-51
2021/01/24 04:14:01;;;;;;;1.75;0.45;;;4.20;99.90;;;;;;5028835;28;20056;-56
2021/01/24 04:16:27;;;;;;;0.95;0.35;;;4.20;99.90;;;;;;5028338;28;20037;-56
2021/01/24 04:18:53;;;;;;;2.92;0.40;;;4.20;99.90;;;;;;5028711;28;20060;-53
2021/01/24 04:21:18;;;;;;;2.67;0.52;;;4.20;99.90;;;;;;5027787;28;20081;-55
2021/01/24 04:23:44;;;;;;;1.15;0.40;;;4.30;99.90;;;;;;5028876;28;20040;-55
2021/01/24 04:26:10;;;;;;;2.10;0.60;;;4.40;99.90;;;;;;5026468;28;20392;-54
2021/01/24 04:28:36;;;;;;;1.27;0.55;;;4.40;99.90;;;;;;5028523;28;20034;-53
2021/01/24 04:31:01;;;;;;;1.83;0.60;;;4.40;99.90;;;;;;5027751;28;20132;-56
2021/01/24 04:33:27;;;;;;;1.00;0.50;;;4.40;99.90;;;;;;5028621;28;20095;-52
2021/01/24 04:35:53;;;;;;;1.40;0.60;;;4.50;99.90;;;;;;5027845;28;20037;-51
2021/01/24 04:38:18;;;;;;;1.30;0.52;;;4.40;99.90;;;;;;5028746;28;20037;-51
2021/01/24 04:40:44;;;;;;;1.20;0.40;;;4.40;99.90;;;;;;5027531;28;20655;-54
2021/01/24 04:43:11;;;;;;;2.10;0.60;;;4.30;99.90;;;;;;5028460;28;20060;-53
2021/01/24 04:45:38;;;;;;;2.35;0.40;;;4.30;99.90;;;;;;5026928;28;20044;-54
2021/01/24 04:48:05;;;;;;;1.58;0.60;;;4.30;99.90;;;;;;5028376;28;20562;-53
2021/01/24 04:50:32;;;;;;;3.50;1.17;;;4.20;99.90;;;;;;5025550;28;20033;-55
2021/01/24 04:52:58;;;;;;;5.65;1.38;;;4.20;99.90;;;;;;5028373;28;20155;-54
2021/01/24 04:55:24;;;;;;;2.30;0.88;;;4.20;99.90;;;;;;5027589;28;20830;-55
2021/01/24 04:57:52;;;;;;;3.70;1.73;;;4.20;99.90;;;;;;5028288;28;20076;-54
2021/01/24 05:00:18;;;;;;;2.40;0.88;;;4.20;99.90;;;;;;5023712;28;20052;-54
2021/01/24 05:02:44;;;;;;;8.00;1.33;;;4.30;99.90;;;;;;5025588;28;20037;-54
2021/01/24 05:05:11;;;;;;;6.78;2.10;;;4.30;99.90;;;;;;5028531;28;20441;-52
2021/01/24 05:07:36;;;;;;;11.20;1.15;;;4.30;99.90;;;;;;5027439;28;20029;-55
2021/01/24 05:10:03;;;;;;;2.20;0.80;;;4.30;99.90;;;;;;5027061;28;20523;-56
2021/01/24 05:12:29;;;;;;;1.23;0.40;;;4.30;99.90;;;;;;5027472;28;20401;-55
2021/01/24 05:14:58;;;;;;;1.10;0.50;;;4.30;99.90;;;;;;5031265;28;20032;-51
2021/01/24 05:17:24;;;;;;;1.08;0.52;;;4.30;99.90;;;;;;5013525;28;20477;-53
2021/01/24 05:19:52;;;;;;;5.30;0.50;;;4.40;99.90;;;;;;5030738;28;20456;-52
2021/01/24 05:22:18;;;;;;;1.20;0.40;;;4.40;99.90;;;;;;5030250;28;20107;-52
2021/01/24 05:24:43;;;;;;;1.58;0.43;;;4.40;99.90;;;;;;5030207;28;20497;-54
2021/01/24 05:27:11;;;;;;;1.67;0.40;;;4.50;99.90;;;;;;5031215;28;20041;-55
2021/01/24 05:29:40;;;;;;;1.70;0.60;;;4.50;99.90;;;;;;5031138;28;20150;-56
2021/01/24 05:32:07;;;;;;;1.30;0.40;;;4.60;99.90;;;;;;5031744;28;20033;-55
2021/01/24 05:34:33;;;;;;;1.00;0.40;;;4.50;99.90;;;;;;5027829;28;20140;-54
2021/01/24 05:37:00;;;;;;;5.53;1.00;;;4.50;99.90;;;;;;5026219;28;20026;-55
2021/01/24 05:39:29;;;;;;;1.55;0.40;;;4.40;99.90;;;;;;5030777;28;20360;-54
2021/01/24 05:41:56;;;;;;;1.50;0.50;;;4.40;99.90;;;;;;5032101;28;20376;-52
2021/01/24 05:44:24;;;;;;;1.35;0.50;;;4.40;99.90;;;;;;5030050;28;20401;-54
2021/01/24 05:46:51;;;;;;;1.77;0.60;;;4.40;99.90;;;;;;5031652;28;20056;-52
2021/01/24 05:49:32;;;;;;;1.98;0.50;;;4.40;99.90;;;;;;5030870;28;20400;-54
2021/01/24 05:52:05;;;;;;;1.30;0.70;;;4.40;99.90;;;;;;5031428;28;20052;-55
2021/01/24 05:54:41;;;;;;;6.30;0.80;;;4.40;99.90;;;;;;5029509;28;20036;-55
2021/01/24 05:57:07;;;;;;;1.60;0.50;;;4.30;99.90;;;;;;5011811;28;20516;-50
2021/01/24 05:59:54;;;;;;;2.80;0.63;;;4.30;99.90;;;;;;5022850;28;20519;-52
2021/01/24 06:02:22;;;;;;;1.80;0.70;;;4.30;99.90;;;;;;5029016;28;20409;-54
2021/01/24 06:04:49;;;;;;;2.13;0.73;;;4.30;99.90;;;;;;5031332;28;20116;-57
2021/01/24 06:07:15;;;;;;;4.70;0.80;;;4.20;99.90;;;;;;5029448;28;20040;-55
2021/01/24 06:09:42;;;;;;;4.47;0.95;;;4.10;99.90;;;;;;5030593;28;20040;-53
2021/01/24 06:12:09;;;;;;;2.03;0.60;;;4.10;99.90;;;;;;5031228;28;20140;-52
2021/01/24 06:14:38;;;;;;;1.77;0.70;;;4.00;99.90;;;;;;5029450;28;20037;-56
2021/01/24 06:17:20;;;;;;;1.58;0.57;;;4.00;99.90;;;;;;5027034;28;20065;-55
2021/01/24 06:19:53;;;;;;;1.55;0.68;;;4.00;99.90;;;;;;5030408;28;20030;-54
2021/01/24 06:22:21;;;;;;;2.10;0.60;;;4.10;99.90;;;;;;5031125;28;20033;-53
2021/01/24 06:24:57;;;;;;;1.08;0.47;;;4.10;99.90;;;;;;5029258;28;20125;-57
2021/01/24 06:27:29;;;;;;;2.30;0.80;;;4.10;99.90;;;;;;5029325;28;20038;-55
2021/01/24 06:29:57;;;;;;;2.75;0.98;;;4.00;99.90;;;;;;5030168;28;20044;-55
2021/01/24 06:32:29;;;;;;;4.80;1.42;;;4.00;99.90;;;;;;5030793;28;20025;-56
2021/01/24 06:35:13;;;;;;;2.65;1.27;;;4.00;99.90;;;;;;5030003;28;20040;-56
2021/01/24 06:37:45;;;;;;;2.03;1.05;;;4.00;99.90;;;;;;5028640;28;20065;-55
2021/01/24 06:40:21;;;;;;;2.10;1.10;;;4.00;99.90;;;;;;5029337;28;20087;-53
2021/01/24 06:42:55;;;;;;;3.75;0.70;;;4.10;99.90;;;;;;5029551;28;20048;-54
2021/01/24 06:45:29;;;;;;;2.70;0.90;;;4.10;99.90;;;;;;5030815;28;20128;-55
2021/01/24 06:47:59;;;;;;;5.38;1.33;;;4.10;99.90;;;;;;5029295;28;20374;-54
2021/01/24 06:50:49;;;;;;;3.17;1.30;;;4.00;99.90;;;;;;5028985;28;20042;-56
2021/01/24 06:53:18;;;;;;;4.18;2.28;;;4.00;99.90;;;;;;5030554;28;20444;-51
2021/01/24 06:56:00;;;;;;;6.07;3.42;;;4.00;99.90;;;;;;5029297;28;20065;-56
2021/01/24 06:58:27;;;;;;;4.32;2.35;;;4.10;99.90;;;;;;5030250;28;20480;-57
2021/01/24 07:01:22;;;;;;;6.68;2.85;;;4.10;99.90;;;;;;5028345;28;20034;-55
2021/01/24 07:04:08;;;;;;;6.57;2.90;;;4.10;99.90;;;;;;5027815;28;20044;-55
2021/01/24 07:06:35;;;;;;;5.25;3.17;;;4.10;99.90;;;;;;5030805;28;20037;-55
2021/01/24 07:09:24;;;;;;;9.38;3.17;;;4.20;99.90;;;;;;5026477;28;20550;-55
2021/01/24 07:11:55;;;;;;;5.13;1.85;;;4.30;99.90;;;;;;5024531;28;20114;-57
2021/01/24 07:14:33;;;;;;;4.00;1.50;;;4.30;99.90;;;;;;5027184;28;20408;-57
2021/01/24 07:17:18;;;;;;;3.75;1.27;;;4.40;99.90;;;;;;5028698;28;20033;-55
2021/01/24 07:19:48;;;;;;;2.90;1.15;;;4.40;99.90;;;;;;5029158;28;20041;-53
2021/01/24 07:22:16;;;;;;;2.00;0.60;;;4.50;99.90;;;;;;5029860;28;20045;-57
2021/01/24 07:24:44;;;;;;;2.17;0.60;;;4.50;99.90;;;;;;5028609;28;20041;-56
2021/01/24 07:27:21;;;;;;;1.48;0.70;;;4.60;99.90;;;;;;5029753;28;20036;-54
2021/01/24 07:29:47;;;;;;;2.35;0.50;;;4.60;99.90;;;;;;5028778;28;20071;-57
2021/01/24 07:32:15;;;;;;;2.42;0.88;;;4.70;99.90;;;;;;5029659;28;20025;-57
2021/01/24 07:34:43;;;;;;;2.10;1.10;;;4.70;99.90;;;;;;5027895;28;20029;-54
2021/01/24 07:37:11;;;;;;;4.47;0.70;;;4.70;99.90;;;;;;5029396;28;20485;-54
2021/01/24 07:39:37;;;;;;;1.63;0.52;;;4.70;99.90;;;;;;5028876;28;20041;-54
2021/01/24 07:42:04;;;;;;;1.33;0.70;;;4.70;99.90;;;;;;5029424;28;20037;-56
2021/01/24 07:44:30;;;;;;;2.00;0.65;;;4.80;99.90;;;;;;5024510;28;20212;-55
2021/01/24 07:46:56;;;;;;;2.65;1.05;;;4.80;99.90;;;;;;5027905;28;20040;-53
2021/01/24 07:49:22;;;;;;;2.75;1.02;;;4.80;99.90;;;;;;5029680;28;20064;-52
2021/01/24 07:51:48;;;;;;;1.77;1.02;;;4.70;99.90;;;;;;5028443;28;20060;-52
2021/01/24 07:54:17;;;;;;;1.98;1.02;;;4.70;99.90;;;;;;5027321;28;20511;-54
2021/01/24 07:56:44;;;;;;;3.65;1.17;;;4.70;99.90;;;;;;5028032;28;20120;-57
2021/01/24 07:59:10;;;;;;;2.30;1.23;;;4.70;99.90;;;;;;5028243;28;20029;-56
2021/01/24 08:01:37;;;;;;;2.72;1.17;;;4.70;99.90;;;;;;5028649;28;20041;-56
2021/01/24 08:04:04;;;;;;;2.72;0.70;;;4.70;99.90;;;;;;5023731;28;20040;-56
2021/01/24 08:06:36;;;;;;;2.63;0.90;;;4.70;99.90;;;;;;5024738;28;20037;-53
2021/01/24 08:09:07;;;;;;;4.07;1.10;;;4.70;99.90;;;;;;5027145;28;20037;-54
2021/01/24 08:11:34;;;;;;;2.35;0.80;;;4.80;99.90;;;;;;5027755;28;20136;-55
2021/01/24 08:14:00;;;;;;;3.58;0.85;;;4.80;99.90;;;;;;5025304;28;20037;-53
2021/01/24 08:16:33;;;;;;;2.55;0.77;;;4.80;99.90;;;;;;5028759;28;20029;-55
2021/01/24 08:19:00;;;;;;;2.58;0.77;;;4.80;99.90;;;;;;5026841;28;20037;-53
2021/01/24 08:21:27;;;;;;;2.08;0.77;;;4.90;99.90;;;;;;5046214;28;20115;-53
2021/01/24 08:23:54;;;;;;;4.03;0.68;;;5.00;99.90;;;;;;5041721;28;20037;-52
2021/01/24 08:26:21;;;;;;;3.72;1.13;;;4.90;99.90;;;;;;5029052;28;20029;-55
2021/01/24 08:28:48;;;;;;;8.30;2.80;;;5.00;99.90;;;;;;5001384;28;20037;-54
2021/01/24 08:31:21;;;;;;;7.57;3.70;;;4.90;99.90;;;;;;5028091;28;20077;-55
2021/01/24 08:33:54;;;;;;;8.93;3.33;;;5.00;99.90;;;;;;5025009;28;20037;-57
2021/01/24 08:36:22;;;;;;;2.72;0.73;;;5.00;99.90;;;;;;5024979;28;20029;-57
2021/01/24 08:38:49;;;;;;;1.75;0.80;;;5.00;99.90;;;;;;5026590;28;20459;-55
2021/01/24 08:41:17;;;;;;;4.25;1.27;;;5.00;99.90;;;;;;5028398;28;20571;-55
2021/01/24 08:43:44;;;;;;;7.65;2.55;;;5.00;99.90;;;;;;5027356;28;20489;-57
2021/01/24 08:46:26;;;;;;;6.90;2.80;;;5.10;99.90;;;;;;5024787;28;20033;-56
2021/01/24 08:48:59;;;;;;;13.10;4.32;;;5.10;99.90;;;;;;5028047;28;20038;-53
2021/01/24 08:51:37;;;;;;;14.75;5.38;;;5.20;99.90;;;;;;5027816;28;20124;-55
2021/01/24 08:54:16;;;;;;;4.93;1.50;;;5.20;99.90;;;;;;5031753;28;20029;-55
2021/01/24 08:56:42;;;;;;;2.95;0.93;;;5.30;99.90;;;;;;5031008;28;20033;-57
2021/01/24 08:59:26;;;;;;;2.33;0.80;;;5.30;99.90;;;;;;5032878;28;20384;-58
2021/01/24 09:01:55;;;;;;;4.53;1.80;;;5.30;99.90;;;;;;5033794;28;20461;-57
2021/01/24 09:04:25;;;;;;;1.83;0.82;;;5.30;99.90;;;;;;5034113;28;20095;-57
2021/01/24 09:07:11;;;;;;;4.40;0.70;;;5.40;99.90;;;;;;5034163;28;20393;-55
2021/01/24 09:09:39;;;;;;;3.58;0.98;;;5.40;99.90;;;;;;5032111;28;20045;-57
2021/01/24 09:12:05;;;;;;;2.38;0.52;;;5.50;99.90;;;;;;5033974;28;20493;-58
2021/01/24 09:14:32;;;;;;;2.25;0.60;;;5.50;99.90;;;;;;5030547;28;20445;-56
2021/01/24 09:17:15;;;;;;;2.55;1.02;;;5.50;99.90;;;;;;5033185;28;20037;-57
2021/01/24 09:19:46;;;;;;;1.77;0.57;;;5.50;99.90;;;;;;5031286;28;20453;-56
2021/01/24 09:22:16;;;;;;;4.30;0.43;;;5.60;99.90;;;;;;5030625;28;20049;-56
2021/01/24 09:24:43;;;;;;;2.38;0.70;;;5.70;99.90;;;;;;5033457;28;20496;-55
2021/01/24 09:27:11;;;;;;;1.90;0.57;;;5.80;99.90;;;;;;5034145;28;20021;-50
2021/01/24 09:29:38;;;;;;;4.85;0.82;;;5.90;99.90;;;;;;5028786;28;20119;-54
2021/01/24 09:32:05;;;;;;;2.22;0.77;;;5.90;99.90;;;;;;5034807;28;20179;-56
2021/01/24 09:34:31;;;;;;;2.53;0.77;;;5.90;99.90;;;;;;5031657;28;20036;-56
2021/01/24 09:36:57;;;;;;;2.00;0.70;;;5.90;99.90;;;;;;5035251;28;20029;-53
2021/01/24 09:39:24;;;;;;;3.58;0.55;;;6.00;99.90;;;;;;5035443;28;20426;-53
2021/01/24 09:41:50;;;;;;;1.80;0.75;;;6.00;99.90;;;;;;5034012;28;20042;-52
2021/01/24 09:44:16;;;;;;;1.48;0.55;;;5.90;99.90;;;;;;5035389;28;20512;-54
2021/01/24 09:46:42;;;;;;;0.60;0.30;;;6.00;99.90;;;;;;5034858;28;20457;-52
2021/01/24 09:49:08;;;;;;;0.95;0.40;;;5.90;99.90;;;;;;5041453;28;20029;-51
2021/01/24 09:51:34;;;;;;;1.73;0.35;;;6.00;99.90;;;;;;5035099;28;20056;-54
2021/01/24 09:54:00;;;;;;;2.20;0.40;;;6.00;99.90;;;;;;5035055;28;20025;-53
2021/01/24 09:56:27;;;;;;;3.88;0.55;;;6.00;99.90;;;;;;5034889;28;20100;-52
2021/01/24 09:58:57;;;;;;;1.55;0.40;;;5.90;99.90;;;;;;5034847;28;20026;-55
2021/01/24 10:01:23;;;;;;;1.33;0.30;;;6.00;99.90;;;;;;5031522;28;20127;-52
2021/01/24 10:03:50;;;;;;;1.23;0.40;;;6.00;99.90;;;;;;5023460;28;20029;-52
2021/01/24 10:06:17;;;;;;;5.30;0.85;;;6.10;99.90;;;;;;5045200;28;20036;-53
2021/01/24 10:08:44;;;;;;;0.57;0.32;;;6.10;99.90;;;;;;5051001;28;20033;-51
2021/01/24 10:11:10;;;;;;;0.80;0.20;;;6.10;99.90;;;;;;5051396;28;20036;-54
2021/01/24 10:13:36;;;;;;;1.33;0.40;;;6.20;99.90;;;;;;5050829;28;20075;-53
2021/01/24 10:16:02;;;;;;;0.75;0.20;;;6.10;99.90;;;;;;5051052;28;20106;-53
2021/01/24 10:18:28;;;;;;;1.42;0.40;;;6.20;99.90;;;;;;5051142;28;20506;-52
2021/01/24 10:20:54;;;;;;;1.25;0.20;;;6.20;99.90;;;;;;5050787;28;20110;-51
2021/01/24 10:23:21;;;;;;;0.90;0.20;;;6.30;99.90;;;;;;5050934;28;20418;-55
2021/01/24 10:25:52;;;;;;;0.90;0.30;;;6.30;99.90;;;;;;5050826;28;20033;-53
2021/01/24 10:28:19;;;;;;;1.30;0.60;;;6.30;99.90;;;;;;5050794;28;20029;-55
2021/01/24 10:30:45;;;;;;;3.97;0.70;;;6.30;99.90;;;;;;5050727;28;20036;-54
2021/01/24 10:33:12;;;;;;;4.05;0.80;;;6.30;99.90;;;;;;5050604;28;20025;-53
2021/01/24 10:35:38;;;;;;;2.20;0.60;;;6.40;99.90;;;;;;5025965;28;20072;-56
2021/01/24 10:38:04;;;;;;;1.98;0.90;;;6.40;99.90;;;;;;5009193;28;20030;-53
2021/01/24 10:40:30;;;;;;;1.70;0.70;;;6.50;99.90;;;;;;5009985;28;20033;-52
2021/01/24 10:42:59;;;;;;;2.05;0.57;;;6.60;99.90;;;;;;5011038;28;20029;-51
2021/01/24 10:45:25;;;;;;;1.65;0.68;;;6.60;99.90;;;;;;5010669;28;20049;-52
2021/01/24 10:47:52;;;;;;;3.75;0.82;;;6.60;99.90;;;;;;5010470;28;20058;-54
2021/01/24 10:50:18;;;;;;;1.20;0.45;;;6.60;99.90;;;;;;5010519;28;20189;-53
2021/01/24 10:52:43;;;;;;;2.03;0.70;;;6.60;99.90;;;;;;5017860;28;20169;-53
2021/01/24 10:55:09;;;;;;;4.07;0.85;;;6.60;99.90;;;;;;5026677;28;20112;-55
2021/01/24 10:57:35;;;;;;;3.10;0.73;;;6.60;99.90;;;;;;5025843;28;20049;-56
2021/01/24 11:00:01;;;;;;;2.97;0.45;;;6.60;99.90;;;;;;5027579;28;20056;-54
2021/01/24 11:02:27;;;;;;;2.50;0.60;;;6.60;99.90;;;;;;5026183;28;20092;-54
2021/01/24 11:04:52;;;;;;;3.38;0.95;;;6.70;99.90;;;;;;5013319;28;20099;-51
2021/01/24 11:07:18;;;;;;;4.00;1.17;;;6.70;99.90;;;;;;5030327;28;20037;-51
2021/01/24 11:09:45;;;;;;;4.05;0.70;;;6.70;99.90;;;;;;5034204;28;20187;-55
2021/01/24 11:12:11;;;;;;;3.00;0.70;;;6.80;99.90;;;;;;5027433;28;20076;-53
2021/01/24 11:14:37;;;;;;;4.30;1.00;;;6.80;99.90;;;;;;5026730;28;20041;-53
2021/01/24 11:17:03;;;;;;;2.05;0.47;;;6.80;99.90;;;;;;5029811;28;20552;-54
2021/01/24 11:19:29;;;;;;;2.45;0.88;;;6.80;99.90;;;;;;5029324;28;20038;-51
2021/01/24 11:21:55;;;;;;;2.42;0.90;;;6.80;99.90;;;;;;5028689;28;20535;-52
2021/01/24 11:24:20;;;;;;;1.95;1.17;;;6.80;99.90;;;;;;5028668;28;20030;-55
2021/01/24 11:26:47;;;;;;;3.85;1.10;;;6.80;99.90;;;;;;5027994;28;20037;-53
2021/01/24 11:29:13;;;;;;;2.28;0.90;;;6.80;99.90;;;;;;5029003;28;20397;-52
2021/01/24 11:31:38;;;;;;;3.72;1.15;;;6.80;99.90;;;;;;5028684;28;20034;-54
2021/01/24 11:34:04;;;;;;;2.13;1.20;;;6.80;99.90;;;;;;5028257;28;20630;-54
2021/01/24 11:36:30;;;;;;;4.97;1.40;;;6.80;99.90;;;;;;5029672;28;20029;-55
2021/01/24 11:38:56;;;;;;;5.00;1.83;;;6.80;99.90;;;;;;5028668;28;20100;-55
2021/01/24 11:41:22;;;;;;;3.17;1.70;;;6.80;99.90;;;;;;5029752;28;20033;-54
2021/01/24 11:43:48;;;;;;;3.67;1.65;;;6.80;99.90;;;;;;5028499;28;20111;-53
2021/01/24 11:46:13;;;;;;;3.00;1.55;;;6.80;99.90;;;;;;5022155;28;20440;-53
2021/01/24 11:48:39;;;;;;;4.28;2.63;;;6.90;99.90;;;;;;5028697;28;20512;-53
2021/01/24 11:51:05;;;;;;;8.63;2.58;;;6.90;99.90;;;;;;5029495;28;20018;-55
2021/01/24 11:53:31;;;;;;;4.72;2.00;;;6.80;99.90;;;;;;5027409;28;20034;-52
2021/01/24 11:55:57;;;;;;;23.08;9.05;;;6.80;99.90;;;;;;5027854;28;20094;-55
2021/01/24 11:58:22;;;;;;;14.38;7.22;;;6.80;99.90;;;;;;5028066;28;20044;-52
2021/01/24 12:00:48;;;;;;;13.40;7.55;;;6.80;99.90;;;;;;5028682;28;20544;-52
2021/01/24 12:03:14;;;;;;;17.80;8.90;;;6.80;99.90;;;;;;5025326;28;20087;-55
2021/01/24 12:05:40;;;;;;;21.80;11.65;;;6.80;99.90;;;;;;5027929;28;20163;-54
2021/01/24 12:08:06;;;;;;;20.67;10.10;;;6.70;99.90;;;;;;5029060;28;20086;-55
2021/01/24 12:10:33;;;;;;;18.50;11.05;;;6.70;99.90;;;;;;5027596;28;20060;-53
2021/01/24 12:12:59;;;;;;;15.50;9.20;;;6.70;99.90;;;;;;5027212;28;20057;-53
2021/01/24 12:15:25;;;;;;;15.70;8.98;;;6.60;99.90;;;;;;5029181;28;20057;-54
2021/01/24 12:17:51;;;;;;;13.57;7.43;;;6.60;99.90;;;;;;5026859;28;20127;-52
2021/01/24 12:20:16;;;;;;;11.70;5.95;;;6.50;99.90;;;;;;5028997;28;20499;-53
2021/01/24 12:22:42;;;;;;;11.27;5.68;;;6.50;99.90;;;;;;5025079;28;20068;-51
2021/01/24 12:25:09;;;;;;;10.80;5.82;;;6.40;99.90;;;;;;5027728;28;20116;-54
2021/01/24 12:27:35;;;;;;;13.07;6.35;;;6.40;99.90;;;;;;5026924;28;20033;-50
2021/01/24 12:30:01;;;;;;;10.35;5.90;;;6.40;99.90;;;;;;5025589;28;20484;-53
2021/01/24 12:32:27;;;;;;;12.38;6.82;;;6.40;99.90;;;;;;5027769;28;20037;-53
2021/01/24 12:34:53;;;;;;;12.15;6.05;;;6.40;99.90;;;;;;5027749;28;20043;-55
2021/01/24 12:37:18;;;;;;;9.55;5.07;;;6.30;99.90;;;;;;5028635;28;20196;-55
2021/01/24 12:39:44;;;;;;;7.90;5.32;;;6.40;99.90;;;;;;5027584;28;20052;-52
2021/01/24 12:42:10;;;;;;;13.32;6.88;;;6.40;99.90;;;;;;5024167;28;20040;-54
2021/01/24 12:44:36;;;;;;;14.07;7.35;;;6.30;99.90;;;;;;5027600;28;20052;-55
2021/01/24 12:47:01;;;;;;;16.20;7.50;;;6.30;99.90;;;;;;5028803;28;20327;-54
2021/01/24 12:49:27;;;;;;;10.95;4.78;;;6.40;99.90;;;;;;5027219;28;20033;-55
2021/01/24 12:51:53;;;;;;;7.93;5.18;;;6.40;99.90;;;;;;5027717;28;20381;-55
2021/01/24 12:54:19;;;;;;;8.30;4.47;;;6.40;99.90;;;;;;5028570;28;20025;-52
2021/01/24 12:56:44;;;;;;;4.75;3.50;;;6.40;99.90;;;;;;5026191;28;20049;-52
2021/01/24 12:59:10;;;;;;;9.52;3.80;;;6.30;99.90;;;;;;5027185;28;20065;-55
2021/01/24 13:01:36;;;;;;;6.65;3.85;;;6.30;99.90;;;;;;5029077;28;20033;-54